Time;durP1;ratioP1;P1;durP2;ratioP2;P2;SDS_P1;SDS_P2;PMS_P1;PMS_P2;Temp;Humidity;BMP_temperature;BMP_pressure;BME280_temperature;BME280_humidity;BME280_pressure;Samples;Min_cycle;Max_cycle;Signal;HPM_P1;HPM_P2
2024/03/21 00:00:51;;;;;;;;;22.00;21.25;;;;;17.34;69.71;101626.66;5079367;27;45339;-71
2024/03/21 00:03:17;;;;;;;;;19.00;18.75;;;;;17.31;69.68;101629.47;5079088;28;45320;-72
2024/03/21 00:05:42;;;;;;;;;20.25;19.50;;;;;17.25;70.00;101627.06;5078097;28;45507;-72
2024/03/21 00:08:08;;;;;;;;;24.75;22.50;;;;;17.32;69.72;101643.84;5078590;28;70055;-71
2024/03/21 00:10:33;;;;;;;;;19.75;19.50;;;;;17.32;69.65;101643.84;5079835;27;45383;-71
2024/03/21 00:12:59;;;;;;;;;20.00;19.25;;;;;17.26;69.95;101645.00;5079078;27;52113;-71
2024/03/21 00:15:24;;;;;;;;;21.75;19.75;;;;;17.31;69.83;101647.50;5079245;27;45311;-71
2024/03/21 00:17:50;;;;;;;;;23.75;22.00;;;;;17.23;69.77;101634.34;5079173;27;46127;-72
2024/03/21 00:20:15;;;;;;;;;24.75;22.00;;;;;17.26;69.71;101630.63;5079383;27;45354;-71
2024/03/21 00:22:43;;;;;;;;;23.50;22.00;;;;;17.22;69.36;101636.19;5078849;27;45302;-71
2024/03/21 00:25:09;;;;;;;;;18.25;17.00;;;;;17.30;69.24;101651.16;5079317;27;45568;-71
2024/03/21 00:27:37;;;;;;;;;20.25;19.50;;;;;17.29;69.99;101647.56;5074276;28;47521;-71
2024/03/21 00:30:04;;;;;;;;;23.00;22.25;;;;;17.28;69.62;101653.91;5079530;27;45311;-71
2024/03/21 00:32:30;;;;;;;;;24.75;24.75;;;;;17.25;69.64;101647.78;5079349;27;45337;-71
2024/03/21 00:34:55;;;;;;;;;21.00;19.50;;;;;17.29;70.07;101663.78;5077893;28;45412;-71
2024/03/21 00:37:21;;;;;;;;;23.50;22.25;;;;;17.31;69.75;101669.09;5071954;28;60974;-72
2024/03/21 00:39:48;;;;;;;;;20.50;20.00;;;;;17.29;69.73;101665.56;5077329;28;45543;-71
2024/03/21 00:42:14;;;;;;;;;22.25;21.50;;;;;17.30;69.93;101665.50;5079148;27;45582;-71
2024/03/21 00:44:39;;;;;;;;;22.00;20.75;;;;;17.27;69.79;101662.94;5079322;27;45345;-72
2024/03/21 00:47:04;;;;;;;;;19.25;17.25;;;;;17.22;69.93;101648.78;5078942;27;46220;-71
2024/03/21 00:49:30;;;;;;;;;19.75;19.25;;;;;17.16;70.15;101643.69;5079021;28;45373;-72
2024/03/21 00:51:56;;;;;;;;;23.75;21.00;;;;;17.21;70.05;101656.00;5077734;27;55422;-71
2024/03/21 00:54:22;;;;;;;;;19.25;19.25;;;;;17.15;70.32;101653.59;5079325;27;45244;-71
2024/03/21 00:56:47;;;;;;;;;19.00;19.00;;;;;17.18;70.30;101649.88;5077635;28;46143;-71
2024/03/21 00:59:13;;;;;;;;;22.75;19.75;;;;;17.21;70.61;101663.25;5079134;27;45351;-71
2024/03/21 01:01:40;;;;;;;;;21.25;18.75;;;;;17.08;70.79;101643.16;5078818;28;45251;-71
2024/03/21 01:04:06;;;;;;;;;18.25;17.50;;;;;17.20;70.55;101683.94;5074503;27;45425;-71
2024/03/21 01:06:32;;;;;;;;;22.50;22.00;;;;;17.15;70.60;101680.56;5076017;28;45675;-71
2024/03/21 01:08:57;;;;;;;;;22.25;19.75;;;;;17.15;71.21;101683.25;5079029;27;45467;-71
2024/03/21 01:11:24;;;;;;;;;20.75;20.75;;;;;17.20;70.92;101697.41;5081982;27;45603;-71
2024/03/21 01:13:49;;;;;;;;;19.00;17.25;;;;;17.19;71.16;101695.69;5082660;27;45546;-71
2024/03/21 01:16:14;;;;;;;;;22.25;20.00;;;;;17.10;71.16;101688.00;5082280;27;46029;-71
2024/03/21 01:18:40;;;;;;;;;20.25;19.00;;;;;17.13;70.84;101706.75;5082423;28;45412;-71
2024/03/21 01:21:07;;;;;;;;;18.75;18.75;;;;;17.15;71.35;101721.03;5080853;27;45362;-72
2024/03/21 01:23:33;;;;;;;;;22.00;21.50;;;;;17.14;70.91;101719.28;5091327;27;45312;-71
2024/03/21 01:25:59;;;;;;;;;22.50;20.25;;;;;17.06;70.97;101709.75;5081747;28;45379;-70
2024/03/21 01:28:25;;;;;;;;;23.50;20.50;;;;;17.04;70.97;101702.63;5082292;28;45742;-71
2024/03/21 01:30:50;;;;;;;;;18.75;18.25;;;;;17.05;70.93;101714.28;5082307;27;45478;-71
2024/03/21 01:33:16;;;;;;;;;21.75;21.75;;;;;17.04;70.75;101710.72;5082377;27;45583;-71
2024/03/21 01:35:42;;;;;;;;;19.25;19.25;;;;;17.05;70.71;101717.00;5081605;27;45547;-71
2024/03/21 01:38:07;;;;;;;;;22.00;20.75;;;;;17.04;70.96;101718.81;5080121;27;45356;-71
2024/03/21 01:40:33;;;;;;;;;21.50;20.75;;;;;16.85;71.09;101689.06;5081000;28;45302;-71
2024/03/21 01:42:59;;;;;;;;;20.50;19.00;;;;;17.02;71.06;101723.41;5082139;27;45424;-71
2024/03/21 01:45:24;;;;;;;;;18.25;17.75;;;;;16.93;71.15;101718.41;5081818;28;46747;-71
2024/03/21 01:47:49;;;;;;;;;21.00;19.00;;;;;16.95;70.89;101746.19;5081803;27;45458;-71
2024/03/21 01:50:15;;;;;;;;;18.25;17.00;;;;;16.97;71.28;101756.91;5081898;27;45348;-71
2024/03/21 01:52:43;;;;;;;;;23.75;21.75;;;;;16.88;71.15;101742.00;5080896;27;45695;-71
2024/03/21 01:55:14;;;;;;;;;21.50;21.50;;;;;16.94;71.06;101757.03;5080340;28;46988;-71
2024/03/21 01:57:39;;;;;;;;;22.00;20.50;;;;;16.80;70.97;101739.59;5081820;27;45493;-71
2024/03/21 02:00:06;;;;;;;;;25.00;25.00;;;;;16.87;71.31;101763.63;5081787;27;45394;-71
2024/03/21 02:02:32;;;;;;;;;23.25;20.00;;;;;16.81;70.94;101764.75;5080847;27;45357;-71
2024/03/21 02:04:57;;;;;;;;;21.50;21.00;;;;;16.83;71.27;101771.81;5073598;28;46113;-71
2024/03/21 02:07:22;;;;;;;;;25.25;21.25;;;;;16.83;71.47;101784.44;5081555;27;45374;-71
2024/03/21 02:09:49;;;;;;;;;23.50;22.50;;;;;16.81;71.11;101778.25;5081597;27;45256;-71
2024/03/21 02:12:47;;;;;;;;;24.50;22.25;;;;;16.75;71.37;101770.41;5081694;27;45398;-71
2024/03/21 02:15:13;;;;;;;;;18.00;15.00;;;;;16.73;71.41;101775.84;5068172;28;46645;-71
2024/03/21 02:17:39;;;;;;;;;25.50;22.50;;;;;16.71;71.29;101771.47;5081118;27;45378;-71
2024/03/21 02:20:06;;;;;;;;;17.75;17.75;;;;;16.62;71.51;101762.84;5081545;27;45391;-71
2024/03/21 02:22:37;;;;;;;;;22.50;21.50;;;;;16.62;71.55;101761.94;5085592;27;45634;-71
2024/03/21 02:25:10;;;;;;;;;22.50;21.50;;;;;16.59;71.50;101762.94;5081159;27;46481;-71
2024/03/21 02:27:37;;;;;;;;;20.00;19.75;;;;;16.56;71.74;101752.28;5081062;27;45542;-71
2024/03/21 02:30:04;;;;;;;;;21.25;20.00;;;;;16.59;71.80;101759.34;5080602;27;45397;-71
2024/03/21 02:32:29;;;;;;;;;21.00;18.75;;;;;16.55;71.86;101755.91;5080879;27;45549;-71
2024/03/21 02:34:55;;;;;;;;;22.00;22.00;;;;;16.54;71.75;101758.69;5081114;28;45361;-71
2024/03/21 02:37:21;;;;;;;;;19.75;18.50;;;;;16.48;71.89;101752.59;5077151;28;45513;-71
2024/03/21 02:39:50;;;;;;;;;17.00;16.00;;;;;16.50;71.82;101757.94;5081287;27;45512;-71
2024/03/21 02:42:20;;;;;;;;;17.50;17.50;;;;;16.47;71.76;101763.44;5080997;27;45425;-70
2024/03/21 02:44:50;;;;;;;;;19.00;18.50;;;;;16.40;71.75;101759.25;5080764;27;46655;-70
2024/03/21 02:47:17;;;;;;;;;18.75;16.50;;;;;16.34;72.13;101762.19;5080989;27;45524;-71
2024/03/21 02:49:42;;;;;;;;;18.75;18.25;;;;;16.40;72.04;101773.59;5080849;28;45331;-71
2024/03/21 02:52:08;;;;;;;;;24.50;21.75;;;;;16.39;72.29;101773.66;5079974;27;45313;-70
2024/03/21 02:54:34;;;;;;;;;20.50;19.50;;;;;16.29;72.06;101763.25;5080952;27;45520;-71
2024/03/21 02:57:00;;;;;;;;;18.75;18.75;;;;;16.35;72.27;101780.13;5080667;27;45373;-71
2024/03/21 02:59:25;;;;;;;;;18.50;17.25;;;;;16.32;72.20;101788.31;5080939;28;45515;-71
2024/03/21 03:01:51;;;;;;;;;17.75;17.00;;;;;16.26;72.19;101781.38;5077231;27;45752;-70
2024/03/21 03:04:17;;;;;;;;;21.00;17.00;;;;;16.26;72.03;101784.06;5067021;28;45300;-71
2024/03/21 03:06:42;;;;;;;;;18.00;16.25;;;;;16.17;72.38;101771.84;5079654;28;45419;-71
2024/03/21 03:09:08;;;;;;;;;17.00;16.00;;;;;16.21;72.04;101777.97;5080960;27;45413;-71
2024/03/21 03:11:36;;;;;;;;;20.25;19.50;;;;;16.20;72.19;101771.69;5080639;27;45331;-71
2024/03/21 03:14:01;;;;;;;;;18.25;17.00;;;;;16.13;72.14;101770.19;5080493;27;46380;-70
2024/03/21 03:16:26;;;;;;;;;18.00;17.25;;;;;16.15;71.98;101767.44;5080360;27;45705;-71
2024/03/21 03:18:51;;;;;;;;;14.25;14.25;;;;;16.07;72.28;101755.16;5080063;28;48942;-71
2024/03/21 03:21:17;;;;;;;;;19.00;17.50;;;;;16.08;72.30;101758.72;5079611;28;45484;-71
2024/03/21 03:23:43;;;;;;;;;18.75;17.25;;;;;15.96;72.26;101749.31;5080280;27;46066;-70
2024/03/21 03:26:08;;;;;;;;;16.25;15.50;;;;;16.09;72.41;101773.94;5079998;27;45479;-70
2024/03/21 03:28:33;;;;;;;;;16.25;16.00;;;;;15.98;72.22;101777.03;5078481;27;45613;-70
2024/03/21 03:30:58;;;;;;;;;17.00;14.25;;;;;15.83;71.99;101770.44;5079525;28;64451;-71
2024/03/21 03:36:08;;;;;;;;;16.75;15.25;;;;;15.94;72.29;101796.97;5079763;28;45421;-70
2024/03/21 03:38:33;;;;;;;;;19.00;19.00;;;;;15.92;72.35;101804.19;5078585;28;45675;-71
2024/03/21 03:40:58;;;;;;;;;18.25;16.75;;;;;15.93;72.27;101811.34;5078681;28;45918;-70
2024/03/21 03:43:24;;;;;;;;;14.25;14.25;;;;;15.94;72.45;101818.50;5079651;28;55967;-70
2024/03/21 03:45:49;;;;;;;;;16.25;14.50;;;;;15.84;72.39;101803.63;5079823;27;45302;-70
2024/03/21 03:48:14;;;;;;;;;14.75;14.75;;;;;15.90;72.34;101814.16;5078981;28;45462;-70
2024/03/21 03:50:40;;;;;;;;;17.00;15.75;;;;;15.80;72.36;101821.69;5079056;27;45369;-70
2024/03/21 03:53:08;;;;;;;;;17.50;14.75;;;;;15.85;72.42;101829.59;5079543;27;45581;-70
2024/03/21 03:55:33;;;;;;;;;17.25;16.25;;;;;15.84;72.84;101828.75;5079804;27;45260;-70
2024/03/21 03:57:59;;;;;;;;;20.75;17.25;;;;;15.80;72.41;101836.97;5079446;27;54422;-71
2024/03/21 04:00:24;;;;;;;;;15.25;14.75;;;;;15.79;72.33;101838.81;5079804;27;45502;-70
2024/03/21 04:02:49;;;;;;;;;15.75;13.75;;;;;15.72;72.48;101829.16;5079691;27;47123;-71
2024/03/21 04:05:17;;;;;;;;;16.75;16.25;;;;;15.76;72.07;101833.53;5070533;28;50862;-70
2024/03/21 04:07:44;;;;;;;;;16.75;15.00;;;;;15.74;72.44;101848.81;5079687;27;45356;-71
2024/03/21 04:10:09;;;;;;;;;16.75;15.00;;;;;15.67;72.56;101844.56;5079596;27;45448;-71
2024/03/21 04:12:34;;;;;;;;;12.00;12.00;;;;;15.66;72.53;101846.41;5079441;28;47269;-70
2024/03/21 04:15:00;;;;;;;;;18.25;17.75;;;;;15.61;72.40;101844.81;5079543;28;45319;-70
2024/03/21 04:17:26;;;;;;;;;16.25;16.25;;;;;15.62;72.25;101852.84;5079364;28;45503;-71
2024/03/21 04:19:51;;;;;;;;;15.75;14.25;;;;;15.50;72.33;101840.72;5079338;27;45461;-71
2024/03/21 04:22:16;;;;;;;;;15.75;14.25;;;;;15.50;72.56;101845.19;5077963;27;45477;-71
2024/03/21 04:24:42;;;;;;;;;14.00;14.00;;;;;15.62;72.48;101878.84;5078726;28;56106;-71
2024/03/21 04:27:08;;;;;;;;;14.25;14.25;;;;;15.50;72.51;101859.53;5079315;27;45428;-70
2024/03/21 04:29:34;;;;;;;;;14.75;14.00;;;;;15.50;72.55;101870.31;5079315;27;45547;-71
2024/03/21 04:31:59;;;;;;;;;15.75;15.25;;;;;15.47;72.54;101878.47;5079362;27;45385;-71
2024/03/21 04:34:24;;;;;;;;;13.00;11.25;;;;;15.48;72.47;101885.59;5079127;27;45235;-71
2024/03/21 04:36:50;;;;;;;;;15.50;14.50;;;;;15.46;72.58;101889.28;5076427;28;45330;-70
2024/03/21 04:39:15;;;;;;;;;11.00;11.00;;;;;15.51;72.47;101904.34;5078962;27;45297;-71
2024/03/21 04:41:41;;;;;;;;;18.25;15.50;;;;;15.51;72.36;101907.03;5079003;28;48845;-71
2024/03/21 04:44:06;;;;;;;;;14.50;13.50;;;;;15.44;72.38;101907.31;5078283;28;45307;-70
2024/03/21 04:46:31;;;;;;;;;15.00;12.50;;;;;15.37;72.24;101891.38;5078912;28;45577;-70
2024/03/21 04:48:57;;;;;;;;;15.50;15.50;;;;;15.43;72.47;101903.72;5078771;28;45533;-71
2024/03/21 04:51:22;;;;;;;;;12.75;12.00;;;;;15.42;72.15;101909.16;5078389;27;46602;-70
2024/03/21 04:53:47;;;;;;;;;11.75;10.50;;;;;15.26;72.37;101880.09;5079014;27;45299;-71
2024/03/21 04:56:13;;;;;;;;;14.50;12.00;;;;;15.26;72.58;101874.72;5078867;28;45420;-70
2024/03/21 04:58:38;;;;;;;;;14.75;13.00;;;;;15.38;72.54;101892.25;5078111;28;57053;-70
2024/03/21 05:01:07;;;;;;;;;12.50;12.50;;;;;15.36;72.31;101880.66;5078900;27;45826;-71
2024/03/21 05:03:32;;;;;;;;;12.25;11.00;;;;;15.36;72.51;101892.28;5078716;27;45559;-70
2024/03/21 05:05:57;;;;;;;;;11.50;10.00;;;;;15.27;72.21;101883.66;5071550;27;45392;-71
2024/03/21 05:08:23;;;;;;;;;14.25;14.25;;;;;15.31;72.34;101896.06;5078201;27;45606;-70
2024/03/21 05:10:48;;;;;;;;;11.00;10.25;;;;;15.11;72.31;101872.53;5077478;28;45323;-71
2024/03/21 05:13:13;;;;;;;;;14.75;12.00;;;;;15.22;72.37;101891.00;5078894;28;45325;-71
2024/03/21 05:15:47;;;;;;;;;14.50;12.75;;;;;15.24;72.52;101902.59;5077524;28;45327;-70
2024/03/21 05:18:13;;;;;;;;;14.75;12.50;;;;;15.21;72.44;101908.94;5078824;27;45350;-71
2024/03/21 05:20:38;;;;;;;;;11.25;10.25;;;;;15.16;72.46;101910.91;5076521;28;45377;-71
2024/03/21 05:23:03;;;;;;;;;15.00;12.50;;;;;15.22;72.21;101924.16;5080902;27;52899;-71
2024/03/21 05:25:29;;;;;;;;;9.50;8.00;;;;;15.21;72.29;101930.47;5077777;28;52422;-71
2024/03/21 05:27:54;;;;;;;;;11.50;11.25;;;;;14.99;72.17;101896.22;5078542;27;45306;-70
2024/03/21 05:30:19;;;;;;;;;10.75;10.75;;;;;15.19;72.07;101930.50;5078792;27;46227;-71
2024/03/21 05:32:44;;;;;;;;;12.25;9.75;;;;;15.08;72.29;101913.84;5078463;27;45356;-70
2024/03/21 05:35:10;;;;;;;;;8.00;8.00;;;;;15.14;72.03;101943.25;5078174;28;55072;-70
2024/03/21 05:37:35;;;;;;;;;9.00;9.00;;;;;15.10;71.82;101938.00;5074802;28;48842;-70
2024/03/21 05:40:00;;;;;;;;;11.00;10.25;;;;;15.04;71.76;101935.53;5078177;28;56373;-71
2024/03/21 05:42:26;;;;;;;;;10.75;10.75;;;;;15.04;71.92;101944.47;5078351;27;45366;-71
2024/03/21 05:44:51;;;;;;;;;10.75;9.75;;;;;14.98;71.68;101933.91;5077545;28;45506;-70
2024/03/21 05:47:21;;;;;;;;;9.75;9.50;;;;;14.98;71.85;101933.91;5076907;28;48758;-71
2024/03/21 05:49:46;;;;;;;;;8.75;7.75;;;;;14.99;71.65;101957.19;5076275;28;47141;-70
2024/03/21 05:52:12;;;;;;;;;8.25;8.25;;;;;15.01;71.80;101977.69;5077939;28;45503;-70
2024/03/21 05:54:37;;;;;;;;;12.50;11.75;;;;;14.95;71.83;101971.63;5077269;28;45275;-70
2024/03/21 05:57:03;;;;;;;;;11.00;10.00;;;;;14.93;71.74;101963.59;5080797;27;45462;-70
2024/03/21 05:59:28;;;;;;;;;15.00;13.00;;;;;14.99;72.04;101992.13;5081822;27;45553;-70
2024/03/21 06:01:53;;;;;;;;;11.50;11.00;;;;;14.92;71.91;101987.88;5081571;28;45390;-71
2024/03/21 06:04:19;;;;;;;;;10.25;10.25;;;;;14.94;71.93;101992.28;5075536;27;45433;-71
2024/03/21 06:06:44;;;;;;;;;11.00;11.00;;;;;14.91;71.73;101986.09;5079191;28;56350;-71
2024/03/21 06:09:11;;;;;;;;;9.00;9.00;;;;;14.86;71.88;101980.00;5081618;27;45416;-74
2024/03/21 06:11:37;;;;;;;;;14.00;11.75;;;;;14.80;71.76;101973.88;5080176;27;45704;-72
2024/03/21 06:14:02;;;;;;;;;10.00;10.00;;;;;14.66;71.66;101959.09;5080938;27;45480;-71
2024/03/21 06:16:27;;;;;;;;;9.50;9.50;;;;;14.71;71.83;101960.72;5080893;27;45560;-72
2024/03/21 06:18:53;;;;;;;;;11.75;10.50;;;;;14.63;72.02;101943.94;5078674;27;59413;-73
2024/03/21 06:21:18;;;;;;;;;11.75;10.75;;;;;14.64;71.70;101957.31;5083130;27;45566;-74
2024/03/21 06:23:43;;;;;;;;;11.50;11.50;;;;;14.69;71.92;101965.25;5079858;28;45469;-74
2024/03/21 06:26:09;;;;;;;;;13.00;12.25;;;;;14.73;72.07;101972.28;5078856;28;45442;-73
2024/03/21 06:28:35;;;;;;;;;13.00;13.00;;;;;14.71;71.90;101987.59;5080214;27;45984;-74
2024/03/21 06:31:01;;;;;;;;;13.00;12.75;;;;;14.75;72.16;101996.44;5079843;27;45668;-74
2024/03/21 06:33:26;;;;;;;;;16.25;14.00;;;;;14.62;71.94;101985.19;5081307;28;45354;-74
2024/03/21 06:35:51;;;;;;;;;13.50;12.75;;;;;14.61;72.32;101989.66;5080562;28;45353;-72
2024/03/21 06:38:17;;;;;;;;;13.25;12.50;;;;;14.69;72.29;102010.06;5081152;27;47931;-73
2024/03/21 06:40:42;;;;;;;;;13.00;12.25;;;;;14.70;72.18;102014.50;5080812;28;45341;-74
2024/03/21 06:43:08;;;;;;;;;12.25;12.25;;;;;14.60;72.32;102003.13;5081067;28;45332;-74
2024/03/21 06:45:35;;;;;;;;;12.00;12.00;;;;;14.75;72.41;102020.63;5078942;28;45550;-73
2024/03/21 06:48:04;;;;;;;;;16.75;13.75;;;;;14.72;72.55;102021.59;5078318;27;47347;-75
2024/03/21 06:50:30;;;;;;;;;12.50;12.25;;;;;14.59;72.30;102010.31;5080066;27;45338;-74
2024/03/21 06:52:57;;;;;;;;;14.50;13.25;;;;;14.66;72.58;102037.91;5079386;28;45428;-74
2024/03/21 06:55:23;;;;;;;;;14.50;12.75;;;;;14.53;72.63;102017.66;5074551;27;45547;-73
2024/03/21 06:57:54;;;;;;;;;16.25;16.00;;;;;14.71;72.76;102053.91;5078804;27;46692;-74
2024/03/21 07:00:19;;;;;;;;;15.50;14.00;;;;;14.52;72.59;102030.22;5075966;27;45753;-74
2024/03/21 07:02:45;;;;;;;;;13.75;13.75;;;;;14.54;72.14;102027.47;5076945;28;45478;-73
2024/03/21 07:05:14;;;;;;;;;16.50;15.00;;;;;14.58;72.63;102038.09;5073776;27;45308;-73
2024/03/21 07:07:39;;;;;;;;;15.00;14.25;;;;;14.53;72.66;102033.78;5079217;27;45697;-73
2024/03/21 07:10:05;;;;;;;;;14.50;13.50;;;;;14.49;72.63;102035.66;5074973;28;52522;-73
2024/03/21 07:12:31;;;;;;;;;14.00;13.00;;;;;14.61;72.81;102053.28;5076896;28;45529;-73
2024/03/21 07:14:57;;;;;;;;;13.25;13.25;;;;;14.58;72.76;102043.47;5079608;27;45414;-73
2024/03/21 07:17:22;;;;;;;;;20.00;18.25;;;;;14.47;72.82;102029.47;5080063;27;46064;-73
2024/03/21 07:19:47;;;;;;;;;19.00;16.00;;;;;14.55;72.86;102042.66;5079764;28;45491;-73
2024/03/21 07:22:14;;;;;;;;;19.50;18.50;;;;;14.67;72.81;102063.88;5075481;28;45435;-73
2024/03/21 07:24:39;;;;;;;;;16.00;14.75;;;;;14.67;72.96;102085.38;5076308;28;45546;-73
2024/03/21 07:27:05;;;;;;;;;18.25;18.25;;;;;14.59;72.93;102080.19;5077676;27;46559;-73
2024/03/21 07:29:30;;;;;;;;;16.75;15.00;;;;;14.52;73.03;102064.28;5077160;28;45624;-73
2024/03/21 07:31:56;;;;;;;;;20.75;16.00;;;;;14.49;73.05;102064.34;5078312;28;45318;-75
2024/03/21 07:34:22;;;;;;;;;21.00;19.00;;;;;14.65;73.06;102103.34;5079580;28;45505;-71
2024/03/21 07:36:48;;;;;;;;;20.50;19.00;;;;;14.48;73.01;102084.06;5078033;28;47745;-72
2024/03/21 07:39:13;;;;;;;;;17.50;15.75;;;;;14.62;73.15;102114.19;5078241;27;45426;-71
2024/03/21 07:41:38;;;;;;;;;22.00;21.00;;;;;14.62;73.25;102122.22;5076362;27;45583;-71
2024/03/21 07:44:04;;;;;;;;;21.25;21.25;;;;;14.65;73.23;102135.59;5079267;27;59087;-73
2024/03/21 07:46:29;;;;;;;;;19.00;17.25;;;;;14.50;73.33;102115.34;5078836;27;51140;-72
2024/03/21 07:48:57;;;;;;;;;19.25;18.25;;;;;14.68;73.42;102151.59;5078786;27;45318;-68
2024/03/21 07:51:23;;;;;;;;;24.00;18.25;;;;;14.62;73.52;102144.59;5079424;27;45346;-72
2024/03/21 07:53:48;;;;;;;;;20.00;19.50;;;;;14.65;73.26;102132.91;5078599;27;45574;-72
2024/03/21 07:56:14;;;;;;;;;20.25;18.50;;;;;14.73;73.21;102143.44;5077716;28;47409;-72
2024/03/21 07:58:39;;;;;;;;;22.00;20.25;;;;;14.76;73.29;102146.91;5078854;27;45352;-72
2024/03/21 08:01:04;;;;;;;;;21.00;20.00;;;;;14.71;73.35;102131.84;5074935;28;45358;-72
2024/03/21 08:03:30;;;;;;;;;30.25;28.75;;;;;14.54;73.13;102100.03;5078121;28;45587;-72
2024/03/21 08:05:55;;;;;;;;;24.00;22.75;;;;;14.86;73.36;102157.41;5077602;28;47307;-72
2024/03/21 08:08:20;;;;;;;;;24.50;24.25;;;;;14.82;73.03;102151.25;5073468;27;52179;-72
2024/03/21 08:10:46;;;;;;;;;25.25;24.50;;;;;14.93;73.58;102159.00;5076723;27;45409;-74
2024/03/21 08:13:11;;;;;;;;;23.75;20.50;;;;;14.85;73.36;102145.78;5079160;27;45449;-73
2024/03/21 08:15:36;;;;;;;;;33.25;28.75;;;;;15.00;73.27;102172.25;5078103;27;45431;-73
2024/03/21 08:18:03;;;;;;;;;24.75;24.00;;;;;15.00;73.17;102164.19;5076811;27;45401;-72
2024/03/21 08:20:29;;;;;;;;;25.75;24.25;;;;;15.04;72.94;102173.03;5075848;27;45450;-73
2024/03/21 08:22:54;;;;;;;;;28.75;26.75;;;;;15.06;72.66;102163.09;5076717;27;45542;-72
2024/03/21 08:25:19;;;;;;;;;27.75;25.00;;;;;15.03;72.29;102152.44;5076033;28;46456;-73
2024/03/21 08:27:45;;;;;;;;;29.75;27.50;;;;;15.16;72.55;102169.97;5089235;27;45366;-74
2024/03/21 08:30:10;;;;;;;;;32.75;29.25;;;;;15.23;72.29;102181.44;5074828;27;45396;-73
2024/03/21 08:32:36;;;;;;;;;30.50;28.25;;;;;15.19;72.18;102169.91;5074931;28;46007;-73
2024/03/21 08:35:02;;;;;;;;;29.50;28.75;;;;;15.26;72.47;102183.19;5077192;27;45542;-73
2024/03/21 08:37:27;;;;;;;;;29.75;28.00;;;;;15.31;72.38;102184.81;5074273;27;45755;-73
2024/03/21 08:39:54;;;;;;;;;31.50;30.75;;;;;15.22;72.44;102158.19;5078077;27;45703;-73
2024/03/21 08:42:20;;;;;;;;;34.00;30.50;;;;;15.28;72.56;102167.88;5077181;27;45641;-73
2024/03/21 08:44:47;;;;;;;;;28.25;25.25;;;;;15.41;72.57;102182.72;5075468;28;47564;-73
2024/03/21 08:47:12;;;;;;;;;29.25;28.75;;;;;15.40;72.42;102180.94;5076826;27;45899;-73
2024/03/21 08:49:38;;;;;;;;;24.00;23.50;;;;;15.51;72.51;102194.09;5089797;27;45509;-73
2024/03/21 08:52:03;;;;;;;;;35.50;32.00;;;;;15.49;72.49;102177.13;5073381;28;45379;-72
2024/03/21 08:54:28;;;;;;;;;38.00;33.00;;;;;15.49;71.78;102172.63;5076127;28;51759;-73
2024/03/21 08:56:55;;;;;;;;;38.50;34.00;;;;;15.54;71.95;102178.75;5077398;27;45302;-73
2024/03/21 08:59:20;;;;;;;;;33.25;30.25;;;;;15.59;72.38;102178.59;5074289;27;45323;-73
2024/03/21 09:01:46;;;;;;;;;40.00;35.00;;;;;15.62;71.78;102191.06;5077154;28;45266;-73
2024/03/21 09:04:11;;;;;;;;;38.50;33.50;;;;;15.67;72.26;102197.19;5072661;28;60582;-73
2024/03/21 09:06:36;;;;;;;;;34.00;31.00;;;;;15.69;72.51;102195.38;5077073;27;45422;-73
2024/03/21 09:09:05;;;;;;;;;40.00;33.50;;;;;15.77;72.28;102203.22;5077406;27;45316;-73
2024/03/21 09:11:31;;;;;;;;;34.75;32.00;;;;;15.81;71.90;102204.91;5076635;27;45468;-73
2024/03/21 09:13:57;;;;;;;;;33.00;28.75;;;;;15.77;71.58;102196.03;5075734;27;45791;-72
2024/03/21 09:16:23;;;;;;;;;36.00;32.00;;;;;15.90;71.63;102215.38;5076859;28;45954;-73
2024/03/21 09:18:49;;;;;;;;;32.00;29.50;;;;;15.88;71.49;102209.16;5076350;27;45682;-73
2024/03/21 09:21:14;;;;;;;;;31.25;29.00;;;;;15.91;71.29;102209.06;5077038;28;46930;-72
2024/03/21 09:23:39;;;;;;;;;28.00;27.75;;;;;15.98;71.12;102218.69;5079887;27;68675;-73
2024/03/21 09:26:05;;;;;;;;;33.25;30.25;;;;;16.02;71.23;102215.00;5076124;28;62663;-72
2024/03/21 09:28:30;;;;;;;;;33.25;31.25;;;;;16.05;71.28;102208.63;5075689;27;46259;-73
2024/03/21 09:30:55;;;;;;;;;33.00;31.25;;;;;16.03;70.82;102203.28;5076387;28;46133;-73
2024/03/21 09:33:21;;;;;;;;;29.50;28.75;;;;;16.09;71.50;102205.78;5079573;28;67219;-73
2024/03/21 09:35:59;;;;;;;;;32.50;30.50;;;;;16.19;70.94;102216.25;5079274;28;60631;-73
2024/03/21 09:38:27;;;;;;;;;33.25;29.75;;;;;16.22;70.51;102208.97;5078905;27;45344;-74
2024/03/21 09:40:53;;;;;;;;;29.25;28.50;;;;;16.24;70.41;102207.09;5080367;27;45386;-74
2024/03/21 09:43:18;;;;;;;;;34.00;31.50;;;;;16.29;70.40;102204.25;5080095;27;46026;-74
2024/03/21 09:45:45;;;;;;;;;37.75;32.75;;;;;16.33;70.61;102207.72;5079808;28;45615;-74
2024/03/21 09:48:11;;;;;;;;;31.00;29.25;;;;;16.37;70.58;102204.88;5080566;27;45307;-74
2024/03/21 09:50:41;;;;;;;;;33.00;29.00;;;;;16.40;70.20;102207.44;5080309;27;45522;-74
2024/03/21 09:53:11;;;;;;;;;32.50;28.25;;;;;16.46;69.92;102222.56;5080524;28;45404;-74
2024/03/21 09:55:37;;;;;;;;;36.50;32.00;;;;;16.49;69.45;102214.38;5079194;27;45370;-75
2024/03/21 09:58:05;;;;;;;;;36.00;30.00;;;;;16.52;69.57;102219.63;5077920;27;45445;-75
2024/03/21 10:00:31;;;;;;;;;34.25;30.25;;;;;16.54;69.39;102217.78;5079895;27;45437;-74
2024/03/21 10:02:56;;;;;;;;;34.00;31.75;;;;;16.56;68.86;102228.53;5076764;28;45438;-74
2024/03/21 10:05:24;;;;;;;;;35.75;31.50;;;;;16.60;69.26;102227.47;5074464;27;45455;-74
2024/03/21 10:07:50;;;;;;;;;31.75;29.25;;;;;16.62;69.30;102226.50;5080203;28;61202;-74
2024/03/21 10:10:15;;;;;;;;;33.25;30.00;;;;;16.65;69.00;102233.59;5079287;27;45418;-74
2024/03/21 10:12:40;;;;;;;;;33.75;30.25;;;;;16.68;69.11;102220.00;5078716;27;46172;-74
2024/03/21 10:15:10;;;;;;;;;32.00;28.75;;;;;16.71;69.01;102221.72;5079206;28;51410;-74
2024/03/21 10:17:36;;;;;;;;;31.75;29.75;;;;;16.77;69.94;102225.09;5078750;27;45544;-74
2024/03/21 10:20:01;;;;;;;;;42.75;32.75;;;;;16.82;69.26;102236.59;5077940;28;65108;-74
2024/03/21 10:22:26;;;;;;;;;28.75;27.50;;;;;16.85;68.75;102230.22;5088148;27;46084;-74
2024/03/21 10:24:56;;;;;;;;;38.75;33.25;;;;;16.88;68.82;102238.22;5077892;27;64788;-74
2024/03/21 10:27:22;;;;;;;;;30.75;30.00;;;;;16.92;68.42;102236.28;5077984;27;45412;-74
2024/03/21 10:29:49;;;;;;;;;35.25;31.00;;;;;16.95;69.33;102234.38;5078788;27;45381;-74
2024/03/21 10:32:19;;;;;;;;;30.50;28.25;;;;;17.00;68.19;102226.97;5079474;27;46657;-70
2024/03/21 10:34:54;;;;;;;;;34.75;32.75;;;;;17.01;68.49;102222.50;5077712;28;45328;-71
2024/03/21 10:37:24;;;;;;;;;32.00;30.00;;;;;17.02;67.93;102213.44;5081204;27;45555;-71
2024/03/21 10:39:51;;;;;;;;;33.50;32.00;;;;;17.07;68.32;102211.47;5078202;27;45417;-72
2024/03/21 10:42:27;;;;;;;;;34.50;29.75;;;;;17.17;67.82;102233.59;5076084;27;45596;-73
2024/03/21 10:44:56;;;;;;;;;33.50;30.50;;;;;17.19;67.10;102232.63;5078736;27;45545;-72
2024/03/21 10:47:22;;;;;;;;;35.00;30.00;;;;;17.22;67.31;102242.41;5078494;27;45566;-73
2024/03/21 10:49:49;;;;;;;;;27.75;27.75;;;;;17.18;66.73;102224.56;5076573;27;45596;-73
2024/03/21 10:52:15;;;;;;;;;34.75;31.00;;;;;17.24;67.53;102229.75;5073552;28;45705;-75
2024/03/21 10:54:41;;;;;;;;;30.25;29.75;;;;;17.32;67.38;102229.47;5078456;27;45417;-74
2024/03/21 10:57:16;;;;;;;;;30.00;29.00;;;;;17.35;67.72;102223.94;5078552;27;45465;-74
2024/03/21 10:59:43;;;;;;;;;29.00;27.75;;;;;17.44;66.75;102230.81;5078016;28;45588;-74
2024/03/21 11:02:13;;;;;;;;;33.25;30.50;;;;;17.47;66.42;102222.59;5077689;27;45712;-75
2024/03/21 11:04:42;;;;;;;;;32.50;29.00;;;;;17.53;66.31;102225.09;5076421;27;45434;-74
2024/03/21 11:07:11;;;;;;;;;25.75;24.00;;;;;17.52;66.80;102216.09;5078465;27;45482;-75